Time;durP1;ratioP1;P1;durP2;ratioP2;P2;SDS_P1;SDS_P2;PMS_P1;PMS_P2;Temp;Humidity;BMP_temperature;BMP_pressure;BME280_temperature;BME280_humidity;BME280_pressure;Samples;Min_cycle;Max_cycle;Signal;HPM_P1;HPM_P2
2023/08/28 00:01:31;;;;;;;5.63;3.10;;;;;;;20.88;61.94;98353.19;6970517;28;20289;-84
2023/08/28 00:08:29;;;;;;;3.37;3.07;;;;;;;20.49;62.76;98313.91;6973955;28;20214;-83
2023/08/28 00:11:54;;;;;;;2.90;2.70;;;;;;;20.92;62.38;98320.59;6975415;28;20224;-83
2023/08/28 00:15:16;;;;;;;3.93;2.87;;;;;;;20.88;62.49;98331.28;6974737;28;20218;-83
2023/08/28 00:18:37;;;;;;;5.03;3.53;;;;;;;20.32;62.19;98286.06;6974680;28;20356;-83
2023/08/28 00:21:59;;;;;;;5.57;3.10;;;;;;;20.52;63.21;98291.44;6974683;28;20352;-82
2023/08/28 00:25:20;;;;;;;4.70;3.20;;;;;;;20.44;63.05;98296.66;6975005;28;20230;-83
2023/08/28 00:28:43;;;;;;;4.70;3.40;;;;;;;20.59;62.56;98289.22;6974369;28;20226;-84
2023/08/28 00:32:05;;;;;;;4.47;3.20;;;;;;;20.67;61.99;98289.44;6972603;28;20234;-84
2023/08/28 00:35:27;;;;;;;5.13;2.80;;;;;;;20.92;61.85;98301.41;6968890;28;20308;-85
2023/08/28 00:38:50;;;;;;;6.10;3.47;;;;;;;20.77;61.93;98294.06;6961136;28;20215;-84
2023/08/28 00:42:12;;;;;;;4.57;3.00;;;;;;;20.94;61.95;98301.94;6967740;28;20294;-84
2023/08/28 00:45:36;;;;;;;8.13;3.07;;;;;;;20.87;61.84;98331.53;6967727;28;20372;-84
2023/08/28 00:48:58;;;;;;;3.23;2.93;;;;;;;20.50;62.44;98326.50;6971681;28;20348;-84
2023/08/28 00:52:19;;;;;;;5.23;3.10;;;;;;;20.67;61.77;98337.94;6974791;28;20206;-84
2023/08/28 00:55:41;;;;;;;3.83;3.10;;;;;;;20.54;62.21;98329.50;6973600;28;20313;-84
2023/08/28 00:59:02;;;;;;;7.53;3.17;;;;;;;20.60;62.13;98351.13;6980091;28;20301;-84
2023/08/28 01:02:25;;;;;;;6.17;2.80;;;;;;;20.71;61.57;98343.69;6985518;28;20698;-83
2023/08/28 01:05:55;;;;;;;4.93;3.03;;;;;;;20.73;61.24;98325.84;6977963;28;20305;-83
2023/08/28 01:09:23;;;;;;;3.00;2.80;;;;;;;20.55;61.90;98323.75;6978148;28;20655;-83
2023/08/28 01:12:52;;;;;;;6.60;3.20;;;;;;;20.46;61.81;98298.03;6977898;28;20299;-83
2023/08/28 01:16:14;;;;;;;5.23;3.20;;;;;;;20.62;61.97;98324.25;6977238;28;20273;-84
2023/08/28 01:19:42;;;;;;;5.93;2.80;;;;;;;20.36;62.92;98332.84;6965311;28;20741;-83
2023/08/28 01:23:15;;;;;;;3.27;2.97;;;;;;;20.09;63.11;98318.69;6967521;28;20250;-83
2023/08/28 01:26:38;;;;;;;5.27;3.60;;;;;;;20.50;62.57;98337.47;6965201;28;20222;-83
2023/08/28 01:33:46;;;;;;;4.97;3.00;;;;;;;20.20;62.71;98344.94;6950786;28;20247;-83
2023/08/28 01:37:15;;;;;;;5.77;3.30;;;;;;;20.28;63.02;98352.59;6975960;28;20218;-83
2023/08/28 01:40:39;;;;;;;3.90;3.10;;;;;;;20.28;62.76;98314.28;6972312;28;20287;-83
2023/08/28 01:44:03;;;;;;;3.90;3.10;;;;;;;20.39;62.13;98330.38;6974021;28;20231;-84
2023/08/28 01:47:25;;;;;;;4.43;3.03;;;;;;;20.15;63.34;98355.91;6971361;28;20308;-82
2023/08/28 01:50:46;;;;;;;3.07;2.83;;;;;;;20.19;63.43;98340.56;6973129;28;20686;-84
2023/08/28 01:54:08;;;;;;;4.40;3.43;;;;;;;19.98;64.02;98320.59;6972552;28;20309;-85
2023/08/28 01:57:29;;;;;;;3.67;3.30;;;;;;;20.47;62.90;98315.28;6963259;28;20908;-85
2023/08/28 02:00:52;;;;;;;4.63;3.00;;;;;;;20.51;62.89;98322.66;6972266;28;20300;-84
2023/08/28 02:04:14;;;;;;;3.97;3.03;;;;;;;20.59;62.29;98322.09;6972277;28;20364;-84
2023/08/28 02:07:35;;;;;;;3.30;3.00;;;;;;;20.57;62.07;98326.22;6971733;28;20635;-85
2023/08/28 02:10:57;;;;;;;3.60;3.20;;;;;;;20.45;61.87;98301.88;6967700;28;20298;-84
2023/08/28 02:14:18;;;;;;;3.03;2.73;;;;;;;20.50;62.12;98307.34;6971857;28;20711;-85
2023/08/28 02:17:41;;;;;;;3.63;3.33;;;;;;;20.28;62.46;98284.16;6970657;28;20203;-84
2023/08/28 02:21:04;;;;;;;4.63;3.53;;;;;;;20.31;62.08;98294.53;6967795;28;20290;-84
2023/08/28 02:24:26;;;;;;;3.40;3.00;;;;;;;19.92;63.64;98285.34;6969911;28;20762;-84
2023/08/28 02:27:47;;;;;;;3.80;3.00;;;;;;;20.16;62.87;98267.22;6971132;28;20837;-84
2023/08/28 02:31:09;;;;;;;3.97;3.40;;;;;;;20.11;62.75;98254.34;6970783;28;20202;-84
2023/08/28 02:34:32;;;;;;;4.33;3.20;;;;;;;20.00;63.55;98250.00;6971643;28;20971;-84
2023/08/28 02:37:53;;;;;;;5.07;2.80;;;;;;;20.22;63.00;98257.91;6971054;28;20234;-84
2023/08/28 02:41:15;;;;;;;4.63;2.87;;;;;;;20.35;62.23;98240.88;6971372;28;20199;-85
2023/08/28 02:44:37;;;;;;;5.60;3.20;;;;;;;20.28;62.42;98243.09;6970850;28;20226;-84
2023/08/28 02:47:58;;;;;;;4.07;3.10;;;;;;;19.80;63.11;98254.72;6985014;28;20309;-84
2023/08/28 02:51:21;;;;;;;6.53;3.70;;;;;;;19.62;64.00;98258.00;6988963;28;20194;-83
2023/08/28 02:54:42;;;;;;;4.23;3.30;;;;;;;19.72;64.05;98241.59;6989731;28;20304;-84
2023/08/28 02:58:04;;;;;;;11.67;3.70;;;;;;;19.73;64.27;98238.59;6989832;28;20252;-83
2023/08/28 03:01:25;;;;;;;4.90;3.47;;;;;;;19.14;64.71;98146.53;6991594;28;20187;-83
2023/08/28 03:04:47;;;;;;;3.50;3.20;;;;;;;19.99;63.71;98228.41;6993679;28;20317;-83
2023/08/28 03:08:10;;;;;;;5.63;3.10;;;;;;;20.01;63.41;98248.06;6994996;28;20230;-84
2023/08/28 03:11:32;;;;;;;5.47;3.10;;;;;;;19.91;63.79;98242.63;6987979;28;20214;-84
2023/08/28 03:14:53;;;;;;;4.50;3.23;;;;;;;20.08;63.18;98249.47;6983687;28;20226;-84
2023/08/28 03:18:15;;;;;;;6.23;3.00;;;;;;;19.49;63.10;98138.28;6980602;28;20729;-84
2023/08/28 03:21:36;;;;;;;4.20;3.13;;;;;;;20.20;62.02;98205.31;6947066;28;20281;-84
2023/08/28 03:24:59;;;;;;;4.57;2.80;;;;;;;20.14;61.97;98231.09;6951193;28;20291;-84
2023/08/28 03:28:21;;;;;;;6.87;2.80;;;;;;;19.71;62.09;98166.94;6960911;28;20222;-83
2023/08/28 03:31:42;;;;;;;4.23;2.87;;;;;;;20.09;62.03;98253.00;6977078;28;20194;-84
2023/08/28 03:35:04;;;;;;;5.40;2.70;;;;;;;19.60;62.43;98200.03;6986753;28;20306;-84
2023/08/28 03:38:34;;;;;;;4.30;3.27;;;;;;;19.93;62.70;98227.56;6980118;28;20210;-82
2023/08/28 03:41:57;;;;;;;2.80;2.60;;;;;;;20.16;62.39;98248.06;6975650;28;20269;-82
2023/08/28 03:45:18;;;;;;;3.50;2.73;;;;;;;20.20;62.06;98241.75;6967977;28;20245;-83
2023/08/28 03:48:40;;;;;;;3.80;2.80;;;;;;;19.92;61.64;98204.06;6945815;28;20237;-84
2023/08/28 03:52:01;;;;;;;2.70;2.60;;;;;;;20.10;62.01;98254.66;6961477;28;20238;-84
2023/08/28 03:55:23;;;;;;;4.40;2.60;;;;;;;19.92;62.60;98266.19;6970245;28;20309;-84
2023/08/28 03:58:46;;;;;;;5.47;3.00;;;;;;;19.83;62.92;98268.66;6970502;28;20257;-83
2023/08/28 04:02:07;;;;;;;3.20;2.97;;;;;;;19.81;63.13;98276.31;6971381;28;20698;-84
2023/08/28 04:05:29;;;;;;;3.93;3.10;;;;;;;19.82;63.35;98277.94;6985539;28;20238;-85
2023/08/28 04:08:50;;;;;;;7.27;3.10;;;;;;;19.66;63.85;98278.25;6996435;28;20237;-84
2023/08/28 04:12:12;;;;;;;3.40;3.10;;;;;;;19.66;63.55;98278.25;6998324;28;20202;-84
2023/08/28 04:15:34;;;;;;;3.70;3.27;;;;;;;19.61;64.06;98267.31;6994488;28;20231;-86
2023/08/28 04:18:56;;;;;;;4.50;4.03;;;;;;;19.56;64.17;98253.66;6985137;28;20667;-84
2023/08/28 04:22:18;;;;;;;4.23;3.13;;;;;;;19.62;64.09;98260.75;6978201;28;20218;-84
2023/08/28 04:25:39;;;;;;;4.13;3.30;;;;;;;19.75;63.88;98255.53;6978923;28;20320;-84
2023/08/28 04:29:00;;;;;;;3.60;3.30;;;;;;;19.98;63.24;98238.50;6954779;28;20365;-85
2023/08/28 04:32:23;;;;;;;3.43;3.13;;;;;;;19.21;64.55;98237.31;6974733;28;20329;-85
2023/08/28 04:35:45;;;;;;;6.33;3.27;;;;;;;19.36;64.76;98238.09;6975360;28;20226;-83
2023/08/28 04:39:06;;;;;;;4.80;3.17;;;;;;;19.66;63.55;98202.50;6975637;28;20687;-83
2023/08/28 04:42:28;;;;;;;4.43;3.30;;;;;;;19.82;63.28;98236.09;6976195;28;20632;-83
2023/08/28 04:45:50;;;;;;;5.20;3.40;;;;;;;19.83;63.83;98229.53;6982240;28;20302;-84
2023/08/28 04:49:13;;;;;;;6.43;3.10;;;;;;;19.92;63.31;98219.66;6976476;28;20262;-83
2023/08/28 04:52:34;;;;;;;5.47;3.07;;;;;;;19.53;63.98;98230.44;6974598;28;20426;-82
2023/08/28 04:55:56;;;;;;;5.23;2.90;;;;;;;19.70;63.77;98233.66;6973218;28;20203;-82
2023/08/28 04:59:17;;;;;;;3.87;2.80;;;;;;;19.91;63.18;98223.47;6974481;28;20214;-82
2023/08/28 05:02:39;;;;;;;3.80;2.77;;;;;;;20.06;62.40;98226.16;6976623;28;20696;-82
2023/08/28 05:06:01;;;;;;;4.30;2.73;;;;;;;19.93;62.16;98240.47;6979691;28;20352;-82
2023/08/28 05:09:23;;;;;;;5.70;2.73;;;;;;;19.36;62.96;98207.19;6977424;28;20198;-82
2023/08/28 05:12:45;;;;;;;6.10;3.17;;;;;;;19.17;64.44;98208.84;6977197;28;20313;-82
2023/08/28 05:16:06;;;;;;;4.53;3.33;;;;;;;19.09;65.14;98190.25;6980218;28;20606;-83
2023/08/28 05:19:28;;;;;;;6.73;3.50;;;;;;;19.54;64.56;98212.09;6972394;28;20274;-82
2023/08/28 05:22:50;;;;;;;3.50;3.20;;;;;;;19.72;64.37;98215.06;6960752;28;20294;-82
2023/08/28 05:26:12;;;;;;;3.03;2.83;;;;;;;20.00;63.70;98208.97;6970679;28;20265;-82
2023/08/28 05:29:33;;;;;;;3.33;2.73;;;;;;;20.21;62.79;98213.28;6978253;28;20221;-82
2023/08/28 05:32:55;;;;;;;4.77;3.10;;;;;;;19.90;61.98;98142.50;6977875;28;20317;-83
2023/08/28 05:36:16;;;;;;;3.83;3.43;;;;;;;20.10;62.42;98216.34;6975491;28;20674;-82
2023/08/28 05:39:39;;;;;;;3.40;3.10;;;;;;;20.19;61.90;98222.84;6977422;28;20248;-83
2023/08/28 05:43:01;;;;;;;3.00;2.80;;;;;;;20.00;62.07;98213.59;6977701;28;20237;-82
2023/08/28 05:46:22;;;;;;;6.03;3.33;;;;;;;19.33;62.85;98145.69;6977133;28;20306;-82
2023/08/28 05:49:44;;;;;;;6.50;2.90;;;;;;;19.87;62.84;98206.00;6978169;28;20739;-83
2023/08/28 05:53:06;;;;;;;6.23;3.10;;;;;;;19.79;62.49;98179.19;6977959;28;20229;-83
2023/08/28 05:56:29;;;;;;;6.07;3.00;;;;;;;20.09;62.35;98204.56;6977352;28;20556;-82
2023/08/28 05:59:51;;;;;;;4.07;3.27;;;;;;;19.48;62.82;98173.00;6970281;28;20294;-83
2023/08/28 06:03:12;;;;;;;4.00;3.10;;;;;;;19.75;62.99;98202.75;6950314;28;20262;-82
2023/08/28 06:06:34;;;;;;;3.40;3.10;;;;;;;19.63;63.32;98164.75;6956093;28;20237;-82
2023/08/28 06:09:55;;;;;;;5.00;3.67;;;;;;;19.76;63.19;98186.03;6978523;28;20237;-86
2023/08/28 06:13:18;;;;;;;10.53;3.70;;;;;;;19.68;64.07;98192.09;6977553;28;20242;-83
2023/08/28 06:16:39;;;;;;;6.30;3.40;;;;;;;20.14;63.63;98179.09;6977368;28;20213;-83
2023/08/28 06:20:01;;;;;;;4.40;3.57;;;;;;;20.28;63.11;98188.34;6978398;28;20258;-83
2023/08/28 06:23:22;;;;;;;3.97;3.67;;;;;;;20.11;63.33;98163.25;6978932;28;20300;-83
2023/08/28 06:26:44;;;;;;;4.20;3.90;;;;;;;20.00;64.14;98135.09;6977625;28;20246;-82
2023/08/28 06:30:08;;;;;;;4.67;4.10;;;;;;;19.97;63.76;98135.63;6979157;28;20252;-83
2023/08/28 06:33:29;;;;;;;5.23;3.57;;;;;;;20.53;62.15;98163.53;6980077;28;20727;-82
2023/08/28 06:36:51;;;;;;;5.87;4.83;;;;;;;20.77;60.94;98200.06;6977670;28;20238;-82
2023/08/28 06:40:12;;;;;;;5.93;5.23;;;;;;;20.25;62.97;98158.78;6985435;28;20214;-83
2023/08/28 06:43:34;;;;;;;7.93;6.50;;;;;;;19.89;63.48;98064.25;6984797;28;20649;-83
2023/08/28 06:46:57;;;;;;;9.27;7.60;;;;;;;20.76;62.05;98143.66;6977375;28;20237;-83
2023/08/28 06:50:18;;;;;;;10.73;6.57;;;;;;;20.70;61.44;98129.16;6977941;28;20722;-82
2023/08/28 06:53:40;;;;;;;11.70;7.37;;;;;;;20.46;63.16;98163.03;6978178;28;20255;-83
2023/08/28 06:57:01;;;;;;;9.67;6.63;;;;;;;20.53;63.20;98141.63;6978405;28;20284;-82
2023/08/28 07:00:23;;;;;;;12.47;7.07;;;;;;;20.63;63.13;98100.47;6977761;28;20288;-87
2023/08/28 07:03:46;;;;;;;7.80;7.10;;;;;;;20.59;63.22;98089.28;6965617;28;20234;-84
2023/08/28 07:07:08;;;;;;;7.77;6.80;;;;;;;20.85;62.54;98145.47;6965112;28;20234;-85
2023/08/28 07:10:29;;;;;;;9.30;7.00;;;;;;;20.73;62.89;98134.06;6972414;28;20293;-85
2023/08/28 07:13:51;;;;;;;6.83;6.23;;;;;;;20.72;62.44;98157.09;6970149;28;20364;-85
2023/08/28 07:17:12;;;;;;;7.40;5.80;;;;;;;21.03;61.48;98164.00;6960756;28;20783;-85
2023/08/28 07:20:35;;;;;;;9.20;6.30;;;;;;;20.43;62.69;98150.72;6971145;28;20241;-84
2023/08/28 07:23:57;;;;;;;8.20;7.40;;;;;;;20.59;62.96;98176.91;6968817;28;20226;-85
2023/08/28 07:27:19;;;;;;;7.00;6.30;;;;;;;20.43;63.41;98166.31;6971443;28;20660;-84
2023/08/28 07:30:43;;;;;;;15.33;8.93;;;;;;;19.99;63.08;98094.31;6974303;28;20727;-83
2023/08/28 07:34:05;;;;;;;8.13;6.90;;;;;;;20.10;64.80;98145.19;6972513;28;20237;-84
2023/08/28 07:37:30;;;;;;;8.83;7.87;;;;;;;20.31;64.21;98143.94;6964794;28;20244;-85
2023/08/28 07:40:51;;;;;;;7.73;6.93;;;;;;;20.38;64.72;98145.28;6965117;28;20233;-84
2023/08/28 07:44:13;;;;;;;7.60;6.90;;;;;;;20.48;63.50;98103.31;6972899;28;20248;-83
2023/08/28 07:47:35;;;;;;;8.07;6.90;;;;;;;20.70;63.16;98117.41;6974181;28;20230;-82
2023/08/28 07:50:56;;;;;;;7.20;6.60;;;;;;;21.04;62.63;98151.91;6973785;28;20289;-82
2023/08/28 07:54:19;;;;;;;9.23;6.90;;;;;;;21.14;61.78;98152.63;6976093;28;20441;-83
2023/08/28 07:57:41;;;;;;;7.43;5.60;;;;;;;21.27;61.10;98145.66;6965983;28;20221;-85
2023/08/28 08:01:05;;;;;;;6.43;5.83;;;;;;;21.51;60.43;98174.78;6957415;28;20241;-84
2023/08/28 08:04:27;;;;;;;6.63;5.87;;;;;;;21.53;59.53;98175.28;6971949;28;20613;-82
2023/08/28 08:07:49;;;;;;;6.00;4.80;;;;;;;21.24;59.48;98187.41;6962089;28;20701;-84
2023/08/28 08:11:12;;;;;;;5.13;4.63;;;;;;;20.94;59.79;98160.22;6973247;28;21313;-82
2023/08/28 08:14:33;;;;;;;4.00;3.67;;;;;;;21.49;57.93;98198.13;6968796;28;20254;-83
2023/08/28 08:17:55;;;;;;;4.77;3.80;;;;;;;21.48;56.83;98193.75;6972128;28;20332;-84
2023/08/28 08:21:17;;;;;;;4.40;4.00;;;;;;;21.17;57.17;98197.84;6963491;28;20296;-84
2023/08/28 08:24:38;;;;;;;4.90;3.87;;;;;;;21.42;56.97;98211.34;6972836;28;20264;-83
2023/08/28 08:28:02;;;;;;;4.27;3.90;;;;;;;21.70;55.74;98202.28;6966110;28;20464;-81
2023/08/28 08:31:23;;;;;;;6.10;3.50;;;;;;;21.52;55.30;98176.41;6969913;28;20206;-82
2023/08/28 08:34:45;;;;;;;3.80;3.10;;;;;;;21.94;53.53;98195.72;6968640;28;20324;-82
2023/08/28 08:38:07;;;;;;;4.63;3.67;;;;;;;21.76;54.18;98206.63;6969967;28;20713;-82
2023/08/28 08:41:28;;;;;;;3.77;3.47;;;;;;;21.40;55.46;98195.19;6970641;28;20207;-83
2023/08/28 08:44:51;;;;;;;3.37;3.07;;;;;;;21.43;55.56;98199.28;6972445;28;20284;-82
2023/08/28 08:48:17;;;;;;;3.83;3.53;;;;;;;21.95;54.85;98207.53;6967265;28;20245;-83
2023/08/28 08:51:43;;;;;;;5.63;3.40;;;;;;;21.48;54.22;98164.38;6976158;28;20290;-84
2023/08/28 08:55:10;;;;;;;5.80;3.43;;;;;;;21.58;55.15;98193.63;6969291;28;20237;-84
2023/08/28 08:58:33;;;;;;;5.30;3.50;;;;;;;21.81;53.69;98206.56;6972272;28;20209;-84
2023/08/28 09:01:59;;;;;;;3.97;2.90;;;;;;;21.44;54.13;98212.72;6972835;28;20289;-83
2023/08/28 09:05:22;;;;;;;3.20;3.00;;;;;;;21.00;55.50;98202.97;6972041;28;20260;-83
2023/08/28 09:08:44;;;;;;;3.87;3.10;;;;;;;21.22;55.64;98175.06;6969632;28;20226;-81
2023/08/28 09:12:07;;;;;;;3.33;2.73;;;;;;;21.66;54.86;98191.06;6974998;28;20596;-87
2023/08/28 09:15:28;;;;;;;3.70;3.40;;;;;;;20.86;55.48;98190.16;6976329;28;20274;-85
2023/08/28 09:18:53;;;;;;;3.13;2.80;;;;;;;21.65;53.08;98203.16;6971922;28;20253;-88
2023/08/28 09:22:14;;;;;;;4.50;2.77;;;;;;;21.87;54.13;98188.94;6971856;28;20356;-83
2023/08/28 09:25:36;;;;;;;3.17;2.70;;;;;;;21.71;52.75;98185.56;6970349;28;20286;-84
2023/08/28 09:29:00;;;;;;;2.50;2.30;;;;;;;21.96;53.52;98190.75;6974475;28;20316;-84
2023/08/28 09:32:28;;;;;;;3.00;2.70;;;;;;;21.57;53.37;98179.09;6975342;28;20794;-82
2023/08/28 09:35:51;;;;;;;5.07;2.60;;;;;;;20.73;53.15;98100.38;6961805;28;20210;-84
2023/08/28 09:39:13;;;;;;;2.50;2.30;;;;;;;21.86;49.33;98173.59;6979299;28;20206;-83
2023/08/28 09:42:36;;;;;;;3.03;2.30;;;;;;;21.12;52.30;98131.28;6976584;28;20349;-83
2023/08/28 09:46:00;;;;;;;2.77;2.30;;;;;;;21.13;52.08;98013.13;6977299;28;20209;-84
2023/08/28 09:49:22;;;;;;;2.43;2.23;;;;;;;21.98;52.12;98149.28;6976640;28;20231;-83
2023/08/28 09:52:44;;;;;;;2.40;2.03;;;;;;;21.69;51.69;98143.03;6979088;28;20215;-83
2023/08/28 09:56:06;;;;;;;3.90;2.63;;;;;;;21.76;52.40;98135.28;6977723;28;20218;-85
2023/08/28 09:59:28;;;;;;;2.70;2.40;;;;;;;21.91;50.94;98124.94;6972659;28;20293;-85
2023/08/28 10:02:51;;;;;;;2.50;2.00;;;;;;;21.58;53.24;98130.50;6974760;28;20704;-84
2023/08/28 10:06:13;;;;;;;4.03;2.33;;;;;;;22.38;51.24;98127.59;6974266;28;20245;-82
2023/08/28 10:09:39;;;;;;;2.40;2.20;;;;;;;22.49;50.60;98106.31;6978694;28;20230;-85
2023/08/28 10:13:02;;;;;;;4.97;2.50;;;;;;;22.12;50.59;98115.31;6991772;28;20222;-82
2023/08/28 10:16:25;;;;;;;2.57;2.37;;;;;;;22.21;52.33;98118.22;6998806;28;20206;-83
2023/08/28 10:19:50;;;;;;;3.27;2.57;;;;;;;22.76;50.12;98109.16;6994677;28;20210;-81
2023/08/28 10:23:12;;;;;;;3.10;2.33;;;;;;;22.51;50.74;98068.34;6987167;28;20228;-84
2023/08/28 10:26:36;;;;;;;3.33;2.43;;;;;;;22.64;48.38;98106.03;6966424;28;20320;-84
2023/08/28 10:29:58;;;;;;;2.90;2.40;;;;;;;22.21;49.64;98086.09;6961987;28;20224;-82
2023/08/28 10:33:20;;;;;;;3.20;2.33;;;;;;;21.99;51.24;98093.25;6972030;28;20307;-81
2023/08/28 10:36:42;;;;;;;3.97;2.80;;;;;;;20.59;52.24;98007.09;6970695;28;20207;-84
2023/08/28 10:40:05;;;;;;;3.80;2.77;;;;;;;22.00;51.43;98050.97;6971099;28;20582;-83
2023/08/28 10:43:28;;;;;;;6.50;2.50;;;;;;;22.54;49.32;98087.78;6971413;28;20284;-82
2023/08/28 10:46:51;;;;;;;2.17;1.97;;;;;;;22.14;51.53;98079.34;6971181;28;20287;-84
2023/08/28 10:50:13;;;;;;;2.87;2.30;;;;;;;22.32;50.48;98064.78;6976368;28;20856;-84
2023/08/28 10:53:35;;;;;;;3.30;2.20;;;;;;;21.98;52.04;98073.25;6970820;28;20222;-83
2023/08/28 10:56:56;;;;;;;2.23;2.03;;;;;;;22.08;51.16;98015.41;6969616;28;20207;-83
2023/08/28 11:00:22;;;;;;;2.67;2.47;;;;;;;22.73;49.69;98044.59;6971730;28;20206;-82
2023/08/28 11:03:53;;;;;;;2.00;1.90;;;;;;;22.49;51.44;98060.38;6972183;28;20591;-82
2023/08/28 11:07:42;;;;;;;3.70;2.47;;;;;;;22.42;49.13;98048.94;6964704;28;20289;-82
2023/08/28 11:11:13;;;;;;;2.53;2.33;;;;;;;23.15;48.67;98054.56;6966139;28;20206;-83
2023/08/28 11:14:38;;;;;;;2.10;1.90;;;;;;;22.82;49.27;98044.72;6974375;28;20257;-82
2023/08/28 11:18:26;;;;;;;3.73;2.03;;;;;;;22.82;49.51;98051.03;6993668;28;20222;-83
2023/08/28 11:21:47;;;;;;;2.63;2.37;;;;;;;22.75;48.48;98053.38;6993906;28;20208;-83
2023/08/28 11:25:10;;;;;;;3.27;2.30;;;;;;;23.27;49.02;98054.91;6986174;28;20284;-84
2023/08/28 11:28:43;;;;;;;2.63;2.00;;;;;;;22.73;48.57;98052.03;6969817;28;20252;-84
2023/08/28 11:32:05;;;;;;;4.07;2.20;;;;;;;22.27;48.68;98048.38;6969838;28;20266;-84
2023/08/28 11:35:28;;;;;;;2.23;2.00;;;;;;;22.64;50.18;98045.59;6968665;28;20272;-83
2023/08/28 11:38:50;;;;;;;2.50;2.30;;;;;;;22.71;48.17;98019.34;6960199;28;20241;-83
2023/08/28 11:42:12;;;;;;;2.33;2.13;;;;;;;22.76;48.78;98010.19;6980124;28;20209;-82
2023/08/28 11:45:34;;;;;;;2.13;1.90;;;;;;;23.08;48.38;98040.41;6984264;28;20248;-83
2023/08/28 11:48:55;;;;;;;2.33;1.83;;;;;;;22.83;48.18;98036.19;6976221;28;20321;-82
2023/08/28 11:52:18;;;;;;;3.57;1.93;;;;;;;22.96;46.33;98038.13;6979380;28;20208;-82
2023/08/28 11:55:40;;;;;;;2.10;1.80;;;;;;;22.94;46.93;98034.88;6968695;28;20835;-81
2023/08/28 11:59:04;;;;;;;1.67;1.57;;;;;;;22.86;45.54;98029.25;6975894;28;20288;-82
2023/08/28 12:02:25;;;;;;;2.87;1.40;;;;;;;22.77;45.43;98042.88;6970849;28;20239;-82
2023/08/28 12:05:47;;;;;;;1.70;1.60;;;;;;;23.18;45.99;98037.50;6972343;28;20236;-82
2023/08/28 12:09:12;;;;;;;3.37;1.60;;;;;;;22.97;45.62;97959.22;6973679;28;20280;-82
2023/08/28 12:12:34;;;;;;;1.90;1.63;;;;;;;22.84;45.96;98043.31;6974868;28;20198;-83
2023/08/28 12:16:08;;;;;;;1.87;1.70;;;;;;;22.62;46.12;98023.94;6964701;28;20209;-84
2023/08/28 12:19:31;;;;;;;2.33;1.70;;;;;;;22.74;45.41;98061.91;6968639;28;20203;-84
2023/08/28 12:22:56;;;;;;;2.80;1.70;;;;;;;22.69;45.53;98060.06;6971337;28;20226;-84
2023/08/28 12:26:19;;;;;;;1.73;1.63;;;;;;;22.58;45.55;98064.09;6967735;28;20370;-84
2023/08/28 12:29:42;;;;;;;2.53;1.50;;;;;;;22.30;46.06;98070.56;6968639;28;20312;-82
2023/08/28 12:33:04;;;;;;;1.50;1.40;;;;;;;22.35;45.77;98014.72;6956706;28;20224;-84
2023/08/28 12:36:35;;;;;;;2.57;1.33;;;;;;;22.94;45.64;98062.38;6967541;28;20206;-82
2023/08/28 12:39:57;;;;;;;1.83;1.60;;;;;;;22.47;45.90;98076.38;6953898;28;20738;-84
2023/08/28 12:43:21;;;;;;;1.73;1.60;;;;;;;22.23;46.17;98075.63;6967996;28;20320;-84
2023/08/28 12:46:42;;;;;;;1.50;1.43;;;;;;;21.22;47.72;98037.97;6969651;28;20199;-84
2023/08/28 12:50:06;;;;;;;1.60;1.50;;;;;;;21.91;47.24;98063.72;6964413;28;20224;-85
2023/08/28 12:53:27;;;;;;;1.50;1.40;;;;;;;22.51;46.97;98052.69;6970931;28;20318;-87
2023/08/28 12:56:49;;;;;;;1.50;1.40;;;;;;;22.74;46.41;98060.00;6956387;28;20323;-84
2023/08/28 13:00:14;;;;;;;1.50;1.40;;;;;;;22.80;46.37;98068.97;6967588;28;20566;-84
2023/08/28 13:03:35;;;;;;;3.87;1.70;;;;;;;22.91;47.35;98076.75;6960318;28;20264;-84
2023/08/28 13:06:57;;;;;;;2.10;1.90;;;;;;;22.89;47.41;98084.47;6967297;28;20336;-84
2023/08/28 13:10:18;;;;;;;3.63;2.63;;;;;;;22.61;48.20;98090.16;6970326;28;20368;-84
2023/08/28 13:13:41;;;;;;;2.77;1.83;;;;;;;22.39;48.09;98095.44;6965183;28;20952;-85
2023/08/28 13:17:04;;;;;;;1.73;1.63;;;;;;;22.76;49.01;98085.25;6967126;28;20285;-83
2023/08/28 13:20:27;;;;;;;2.07;1.87;;;;;;;22.96;48.36;98084.88;6972808;28;20207;-81
2023/08/28 13:23:48;;;;;;;1.67;1.57;;;;;;;23.11;47.00;98081.03;6964084;28;20238;-82
2023/08/28 13:27:10;;;;;;;2.63;1.80;;;;;;;22.66;48.30;98090.88;6972213;28;20301;-84
2023/08/28 13:30:32;;;;;;;4.07;1.80;;;;;;;22.45;48.60;98089.59;6972920;28;20699;-84
2023/08/28 13:33:55;;;;;;;2.27;2.00;;;;;;;22.69;48.64;98059.25;6963741;28;20314;-84
2023/08/28 13:37:16;;;;;;;2.47;1.70;;;;;;;22.70;47.94;98061.69;6972712;28;20205;-84
2023/08/28 13:40:38;;;;;;;2.57;1.50;;;;;;;22.89;45.24;98028.69;6972635;28;20237;-84
2023/08/28 13:43:59;;;;;;;1.67;1.57;;;;;;;22.85;45.90;98047.72;6971915;28;20259;-82
2023/08/28 13:47:21;;;;;;;1.40;1.40;;;;;;;22.92;45.08;98064.63;6971125;28;20205;-83
2023/08/28 13:50:44;;;;;;;2.10;1.43;;;;;;;22.70;44.48;98034.22;6963238;28;20234;-84
2023/08/28 13:54:06;;;;;;;3.33;1.50;;;;;;;22.43;45.25;98080.81;6957741;28;20226;-82
2023/08/28 13:57:27;;;;;;;3.87;1.60;;;;;;;22.22;44.85;98076.72;6970205;28;20688;-83
2023/08/28 14:00:49;;;;;;;1.13;1.13;;;;;;;21.98;45.77;98080.66;6973849;28;20286;-83
2023/08/28 14:04:10;;;;;;;1.80;1.70;;;;;;;21.93;46.54;98084.28;6966463;28;20250;-82
2023/08/28 14:07:33;;;;;;;1.60;1.50;;;;;;;21.88;47.18;98089.84;6971411;28;20913;-84
2023/08/28 14:10:55;;;;;;;1.50;1.40;;;;;;;22.13;46.96;98088.69;6972635;28;20241;-82
2023/08/28 14:14:16;;;;;;;1.50;1.40;;;;;;;22.59;46.29;98090.47;6972498;28;20250;-82
2023/08/28 14:17:38;;;;;;;1.87;1.77;;;;;;;22.46;46.82;98069.25;6974026;28;20257;-84
2023/08/28 14:20:59;;;;;;;1.53;1.43;;;;;;;22.54;46.37;98063.06;6970862;28;20360;-84
2023/08/28 14:24:23;;;;;;;1.40;1.30;;;;;;;21.96;47.93;98071.91;6973406;28;20841;-85
2023/08/28 14:27:44;;;;;;;2.47;1.60;;;;;;;22.57;48.30;98067.16;6971995;28;20218;-83
2023/08/28 14:31:06;;;;;;;2.10;1.60;;;;;;;21.46;49.20;98072.50;6972486;28;20770;-83
2023/08/28 14:34:28;;;;;;;2.13;1.90;;;;;;;21.52;48.23;98061.19;6971443;28;20364;-84
2023/08/28 14:37:49;;;;;;;1.70;1.60;;;;;;;21.84;48.53;98066.84;6973545;28;20260;-84
2023/08/28 14:41:12;;;;;;;1.77;1.60;;;;;;;22.08;48.85;98072.28;6973288;28;20850;-85
2023/08/28 14:44:34;;;;;;;2.50;1.37;;;;;;;21.41;49.13;97982.88;6973882;28;20237;-85
2023/08/28 14:47:55;;;;;;;2.87;1.40;;;;;;;21.74;48.86;98060.66;6999448;28;20331;-84
2023/08/28 14:51:17;;;;;;;1.50;1.40;;;;;;;21.57;47.51;98063.88;6973652;28;20254;-85
2023/08/28 14:54:38;;;;;;;1.40;1.17;;;;;;;21.84;46.66;98074.25;6993762;28;20285;-85
2023/08/28 14:58:03;;;;;;;1.67;1.57;;;;;;;21.84;46.85;98064.09;6968184;28;20678;-84
2023/08/28 15:01:25;;;;;;;2.37;1.40;;;;;;;21.57;47.00;98057.56;6970496;28;20532;-85
2023/08/28 15:04:47;;;;;;;2.53;1.60;;;;;;;21.34;46.68;98080.31;6967249;28;20246;-84
2023/08/28 15:08:08;;;;;;;3.87;1.97;;;;;;;21.61;46.08;98086.06;6970575;28;20332;-85
2023/08/28 15:11:30;;;;;;;1.87;1.37;;;;;;;21.66;46.61;98088.75;6957043;28;20289;-85
2023/08/28 15:14:53;;;;;;;1.50;1.40;;;;;;;21.67;45.89;98036.31;6962437;28;20226;-84
2023/08/28 15:18:14;;;;;;;1.50;1.40;;;;;;;22.17;45.65;98092.44;6974308;28;20236;-84
2023/08/28 15:21:36;;;;;;;1.77;1.50;;;;;;;21.35;46.54;98076.47;6979428;28;20258;-84
2023/08/28 15:24:57;;;;;;;1.57;1.47;;;;;;;22.09;45.65;98085.72;6989075;28;20222;-84
2023/08/28 15:28:19;;;;;;;1.13;1.10;;;;;;;21.14;46.07;97998.31;6999066;28;20201;-84
2023/08/28 15:31:42;;;;;;;1.73;1.30;;;;;;;21.37;45.36;98082.50;6981513;28;20199;-84
2023/08/28 15:35:04;;;;;;;1.83;1.10;;;;;;;21.42;46.60;98090.69;6971112;28;20325;-84
2023/08/28 15:38:25;;;;;;;1.30;1.23;;;;;;;21.25;46.92;98091.13;6970914;28;20202;-84
2023/08/28 15:41:47;;;;;;;1.30;1.20;;;;;;;21.53;46.31;98094.94;6951286;28;20291;-81
2023/08/28 15:45:09;;;;;;;1.20;1.10;;;;;;;21.46;46.59;98095.28;6949081;28;20379;-84
2023/08/28 15:48:31;;;;;;;2.00;1.80;;;;;;;21.86;46.29;98083.00;6979546;28;20293;-83
2023/08/28 15:51:53;;;;;;;2.70;1.37;;;;;;;21.99;46.05;98085.03;7000423;28;20277;-84
2023/08/28 15:55:15;;;;;;;3.43;1.63;;;;;;;21.68;46.48;98086.53;6993532;28;20234;-82
2023/08/28 15:58:36;;;;;;;1.00;1.00;;;;;;;20.92;48.04;98093.94;6988784;28;20240;-86
2023/08/28 16:01:58;;;;;;;1.50;1.40;;;;;;;21.67;47.72;98093.13;7012503;28;20206;-83